Time;durP1;ratioP1;P1;durP2;ratioP2;P2;SDS_P1;SDS_P2;PMS_P1;PMS_P2;Temp;Humidity;BMP_temperature;BMP_pressure;BME280_temperature;BME280_humidity;BME280_pressure;Samples;Min_cycle;Max_cycle;Signal;HPM_P1;HPM_P2
2021/12/06 00:01:50;;;;;;;30.70;14.02;;;;;;;1.38;100.00;100125.03;5046599;28;20069;-67
2021/12/06 00:04:17;;;;;;;32.90;16.25;;;;;;;1.39;100.00;100119.69;5053142;28;20048;-68
2021/12/06 00:06:46;;;;;;;31.35;15.35;;;;;;;1.42;100.00;100120.41;5038258;28;20033;-67
2021/12/06 00:09:16;;;;;;;27.55;13.48;;;;;;;1.38;100.00;100125.88;5047997;28;20021;-66
2021/12/06 00:11:41;;;;;;;23.95;12.57;;;;;;;1.34;100.00;100121.88;5053272;28;20047;-67
2021/12/06 00:14:07;;;;;;;29.27;13.25;;;;;;;1.38;100.00;100130.28;5043590;28;20116;-68
2021/12/06 00:16:33;;;;;;;25.35;11.77;;;;;;;1.44;100.00;100126.34;5037347;28;20041;-66
2021/12/06 00:18:58;;;;;;;21.25;11.23;;;;;;;1.48;100.00;100122.53;5054221;28;20016;-65
2021/12/06 00:21:25;;;;;;;25.70;12.68;;;;;;;1.45;100.00;100120.16;5052202;28;20037;-68
2021/12/06 00:23:50;;;;;;;26.75;12.48;;;;;;;1.39;100.00;100101.41;5056111;28;20112;-68
2021/12/06 00:26:16;;;;;;;28.98;12.38;;;;;;;1.43;100.00;100117.66;5053843;28;20112;-67
2021/12/06 00:28:45;;;;;;;23.45;12.60;;;;;;;1.54;100.00;100119.38;5050844;28;20036;-68
2021/12/06 00:31:13;;;;;;;23.90;12.80;;;;;;;1.51;100.00;100117.88;5052952;28;20029;-64
2021/12/06 00:33:40;;;;;;;26.42;11.73;;;;;;;1.55;100.00;100110.63;5036215;28;20045;-66
2021/12/06 00:36:15;;;;;;;24.27;12.75;;;;;;;1.53;100.00;100105.47;5036957;28;20025;-64
2021/12/06 00:38:43;;;;;;;27.02;13.45;;;;;;;1.57;100.00;100119.16;5045870;28;20033;-65
2021/12/06 00:41:08;;;;;;;24.73;12.10;;;;;;;1.54;100.00;100116.78;5046027;28;20095;-65
2021/12/06 00:43:34;;;;;;;21.02;12.63;;;;;;;1.53;100.00;100110.72;5046630;28;20501;-64
2021/12/06 00:45:59;;;;;;;28.80;11.50;;;;;;;1.54;100.00;100106.31;5043885;28;20032;-66
2021/12/06 00:48:25;;;;;;;29.95;13.27;;;;;;;1.53;100.00;100110.72;5043906;28;20017;-65
2021/12/06 00:50:50;;;;;;;22.42;11.48;;;;;;;1.52;100.00;100111.66;5041607;28;20029;-65
2021/12/06 00:53:16;;;;;;;30.42;13.10;;;;;;;1.57;100.00;100109.50;5050417;28;20036;-65
2021/12/06 00:55:41;;;;;;;25.70;12.43;;;;;;;1.53;100.00;100105.47;5040508;28;20025;-65
2021/12/06 00:58:07;;;;;;;33.28;13.27;;;;;;;1.56;100.00;100115.69;5051404;28;20033;-67
2021/12/06 01:00:35;;;;;;;23.75;12.68;;;;;;;1.57;100.00;100106.91;5048800;28;20170;-64
2021/12/06 01:03:05;;;;;;;25.45;12.90;;;;;;;1.57;100.00;100114.75;5039290;28;20087;-65
2021/12/06 01:05:30;;;;;;;27.42;13.00;;;;;;;1.59;100.00;100114.63;5038328;28;20033;-65
2021/12/06 01:07:56;;;;;;;31.42;12.50;;;;;;;1.62;100.00;100096.91;5045794;28;20032;-65
2021/12/06 01:10:27;;;;;;;27.92;13.65;;;;;;;1.63;100.00;100101.16;5050171;28;20045;-65
2021/12/06 01:12:53;;;;;;;30.55;12.52;;;;;;;1.66;100.00;100087.00;5049104;28;20075;-67
2021/12/06 01:15:18;;;;;;;34.08;13.50;;;;;;;1.71;100.00;100095.28;5053424;28;20029;-65
2021/12/06 01:17:45;;;;;;;37.30;14.68;;;;;;;1.53;100.00;100078.53;5046145;28;20041;-66
2021/12/06 01:20:17;;;;;;;28.50;12.82;;;;;;;1.62;100.00;100080.38;5042839;28;20067;-66
2021/12/06 01:22:56;;;;;;;24.65;12.38;;;;;;;1.68;100.00;100085.06;5049516;28;20036;-66
2021/12/06 01:28:30;;;;;;;36.25;15.05;;;;;;;1.72;100.00;100091.72;5055038;28;20370;-65
2021/12/06 01:41:15;;;;;;;35.38;13.90;;;;;;;1.73;100.00;100076.84;5039124;28;20122;-65
2021/12/06 01:44:07;;;;;;;34.20;15.05;;;;;;;1.76;100.00;100072.19;5053675;28;20025;-66
2021/12/06 01:46:36;;;;;;;35.78;14.77;;;;;;;1.79;100.00;100071.94;5046800;28;20037;-67
2021/12/06 01:49:02;;;;;;;38.42;13.88;;;;;;;1.86;100.00;100085.34;5051226;28;20096;-65
2021/12/06 01:51:28;;;;;;;40.08;13.55;;;;;;;1.83;100.00;100075.94;5042670;28;20116;-65
2021/12/06 01:53:54;;;;;;;35.65;16.05;;;;;;;1.77;100.00;100076.47;5051715;28;20108;-65
2021/12/06 01:56:19;;;;;;;36.58;14.05;;;;;;;1.75;100.00;100072.31;5052308;28;20029;-65
2021/12/06 01:58:45;;;;;;;35.70;14.02;;;;;;;1.78;100.00;100067.69;5050985;28;20020;-66
2021/12/06 02:01:11;;;;;;;33.63;14.00;;;;;;;1.82;100.00;100061.22;5041805;28;20272;-67
2021/12/06 02:03:37;;;;;;;34.00;14.13;;;;;;;1.80;100.00;100067.53;5052032;28;20577;-66
2021/12/06 02:06:02;;;;;;;31.00;14.77;;;;;;;1.82;100.00;100047.31;5044140;28;20037;-66
2021/12/06 02:08:28;;;;;;;42.22;15.50;;;;;;;1.66;100.00;100053.00;5040307;28;20039;-67
2021/12/06 02:11:00;;;;;;;43.88;16.25;;;;;;;1.66;100.00;100046.00;5051713;28;20124;-65
2021/12/06 02:13:29;;;;;;;39.67;16.02;;;;;;;1.69;100.00;100055.38;5047806;28;20461;-65
2021/12/06 02:15:56;;;;;;;40.90;15.25;;;;;;;1.62;100.00;100042.00;5042567;28;20028;-65
2021/12/06 02:18:40;;;;;;;33.10;15.18;;;;;;;1.72;100.00;100060.34;5045266;28;20414;-65
2021/12/06 02:21:27;;;;;;;27.38;12.18;;;;;;;1.77;100.00;100067.81;5043620;28;20044;-66
2021/12/06 02:23:53;;;;;;;37.05;16.83;;;;;;;1.75;100.00;100054.03;5051840;28;20128;-64
2021/12/06 02:26:19;;;;;;;40.92;15.32;;;;;;;1.82;100.00;100055.97;5051536;28;20111;-65
2021/12/06 02:28:45;;;;;;;36.78;14.35;;;;;;;1.83;100.00;100062.03;5050320;28;20116;-65
2021/12/06 02:31:11;;;;;;;30.15;13.77;;;;;;;1.82;100.00;100053.38;5050634;28;20104;-66
2021/12/06 02:33:38;;;;;;;27.85;13.30;;;;;;;1.79;100.00;100051.03;5047159;28;20483;-67
2021/12/06 02:36:04;;;;;;;24.25;11.93;;;;;;;1.79;100.00;100043.19;5042139;28;20032;-67
2021/12/06 02:38:30;;;;;;;32.92;15.50;;;;;;;1.75;100.00;100033.94;5051656;28;20025;-66
2021/12/06 02:40:56;;;;;;;29.80;13.95;;;;;;;1.69;100.00;100033.63;5049514;28;20033;-66
2021/12/06 02:43:21;;;;;;;36.38;13.77;;;;;;;1.75;100.00;100044.38;5045673;28;20048;-66
2021/12/06 02:45:47;;;;;;;30.23;14.38;;;;;;;1.70;100.00;100033.50;5050103;28;20055;-66
2021/12/06 02:48:13;;;;;;;28.63;13.35;;;;;;;1.75;100.00;100040.94;5047456;28;20040;-66
2021/12/06 02:50:51;;;;;;;38.00;14.07;;;;;;;1.77;100.00;100026.81;5038051;28;20086;-65
2021/12/06 02:53:19;;;;;;;35.50;14.93;;;;;;;1.75;100.00;100025.25;5032930;28;20395;-65
2021/12/06 02:55:51;;;;;;;29.50;13.60;;;;;;;1.73;100.00;100027.19;5040960;28;20382;-65
2021/12/06 02:58:45;;;;;;;39.35;14.10;;;;;;;1.79;100.00;100022.25;5048919;28;20032;-67
2021/12/06 03:01:19;;;;;;;40.63;16.40;;;;;;;1.57;100.00;100025.88;5033588;28;20034;-68
2021/12/06 03:03:45;;;;;;;48.05;18.33;;;;;;;1.68;100.00;100024.94;5034635;28;20129;-66
2021/12/06 03:06:13;;;;;;;39.60;16.38;;;;;;;1.44;100.00;100025.22;5037640;28;20026;-68
2021/12/06 03:08:39;;;;;;;35.83;15.35;;;;;;;1.58;100.00;100024.06;5051572;28;20037;-68
2021/12/06 03:11:11;;;;;;;46.50;18.15;;;;;;;1.49;100.00;100023.06;5037242;28;20446;-67
2021/12/06 03:13:37;;;;;;;43.60;16.65;;;;;;;1.62;100.00;100022.88;5033198;28;20033;-66
2021/12/06 03:16:03;;;;;;;42.40;16.48;;;;;;;1.66;100.00;100014.63;5032934;28;20056;-67
2021/12/06 03:18:29;;;;;;;35.83;16.15;;;;;;;1.54;100.00;100017.44;5033224;28;20034;-66
2021/12/06 03:20:55;;;;;;;45.40;16.33;;;;;;;1.61;100.00;100026.41;5033660;28;20032;-66
2021/12/06 03:23:20;;;;;;;43.63;17.45;;;;;;;1.71;100.00;100035.16;5051269;28;20029;-67
2021/12/06 03:25:45;;;;;;;35.30;13.70;;;;;;;1.44;100.00;100032.25;5055845;28;20025;-67
2021/12/06 03:28:11;;;;;;;33.47;15.02;;;;;;;1.35;100.00;100028.63;5057955;28;20040;-65
2021/12/06 03:30:38;;;;;;;31.77;13.63;;;;;;;1.39;100.00;100040.47;5053570;28;20394;-65
2021/12/06 03:33:03;;;;;;;29.73;14.07;;;;;;;1.60;100.00;100045.69;5056404;28;20048;-66
2021/12/06 03:35:29;;;;;;;32.95;14.35;;;;;;;1.46;100.00;100033.75;5048776;28;20032;-65
2021/12/06 03:37:54;;;;;;;31.05;14.82;;;;;;;1.55;100.00;100030.41;5055391;28;20391;-67
2021/12/06 03:40:20;;;;;;;38.97;15.25;;;;;;;1.63;100.00;100034.97;5069523;28;20050;-66
2021/12/06 03:42:45;;;;;;;39.80;15.05;;;;;;;1.44;100.00;100033.06;5056653;28;20489;-67
2021/12/06 03:45:11;;;;;;;33.00;14.88;;;;;;;1.54;100.00;100039.22;5046436;28;20034;-66
2021/12/06 03:47:37;;;;;;;38.55;14.75;;;;;;;1.47;100.00;100032.84;5055979;28;20161;-67
2021/12/06 03:50:05;;;;;;;39.95;16.33;;;;;;;1.59;100.00;100036.19;5053876;28;20495;-65
2021/12/06 03:52:31;;;;;;;41.38;14.73;;;;;;;1.50;100.00;100035.19;5040990;28;20037;-67
2021/12/06 03:54:58;;;;;;;40.20;16.05;;;;;;;1.51;100.00;100030.78;5057481;28;20112;-68
2021/12/06 03:57:24;;;;;;;39.83;16.55;;;;;;;1.62;100.00;100038.56;5057531;28;20635;-66
2021/12/06 03:59:51;;;;;;;47.17;16.90;;;;;;;1.67;100.00;100023.28;5042719;28;20032;-65
2021/12/06 04:02:17;;;;;;;37.63;16.80;;;;;;;1.67;100.00;100026.72;5056179;28;20064;-66
2021/12/06 04:04:43;;;;;;;37.70;17.48;;;;;;;1.71;100.00;100027.31;5054193;28;20032;-66
2021/12/06 04:07:09;;;;;;;34.80;14.15;;;;;;;1.63;100.00;100016.69;5041955;28;20025;-67
2021/12/06 04:09:35;;;;;;;31.80;16.42;;;;;;;1.61;100.00;100016.78;5056767;28;20024;-68
2021/12/06 04:12:00;;;;;;;29.90;13.55;;;;;;;1.57;100.00;100004.13;5044527;28;20475;-65
2021/12/06 04:14:26;;;;;;;31.90;13.93;;;;;;;1.63;100.00;100024.53;5055161;28;20040;-67
2021/12/06 04:16:52;;;;;;;38.00;12.27;;;;;;;1.44;100.00;100003.50;5056900;28;20025;-67
2021/12/06 04:19:17;;;;;;;32.60;13.90;;;;;;;1.73;100.00;100017.53;5058152;28;20521;-68
2021/12/06 04:21:46;;;;;;;41.47;14.25;;;;;;;1.76;100.00;100017.28;5053536;28;20028;-66
2021/12/06 04:24:13;;;;;;;47.13;15.80;;;;;;;1.78;100.00;100010.16;5055730;28;20028;-69
2021/12/06 04:26:39;;;;;;;31.45;14.18;;;;;;;1.54;100.00;100017.44;5052995;28;20143;-67
2021/12/06 04:29:05;;;;;;;37.88;15.23;;;;;;;1.44;100.00;100006.09;5053533;28;20127;-66
2021/12/06 04:31:37;;;;;;;37.30;14.75;;;;;;;1.52;100.00;100001.06;5054491;28;20025;-66
2021/12/06 04:34:02;;;;;;;36.30;15.88;;;;;;;1.60;100.00;100002.06;5053421;28;20018;-66
2021/12/06 04:36:28;;;;;;;35.17;15.73;;;;;;;1.64;100.00;100010.50;5040023;28;20036;-66
2021/12/06 04:38:53;;;;;;;34.08;15.55;;;;;;;1.69;100.00;100010.94;5052892;28;20492;-66
2021/12/06 04:41:19;;;;;;;46.47;15.50;;;;;;;1.68;100.00;100017.09;5043522;28;20491;-67
2021/12/06 04:43:45;;;;;;;52.78;16.90;;;;;;;1.67;100.00;100012.84;5051234;28;20032;-67
2021/12/06 04:46:11;;;;;;;35.13;15.20;;;;;;;1.54;100.00;100017.44;5057500;28;20381;-66
2021/12/06 04:48:36;;;;;;;37.28;16.75;;;;;;;1.69;100.00;100003.09;5047545;28;20025;-66
2021/12/06 04:51:04;;;;;;;59.17;16.23;;;;;;;1.75;100.00;100009.56;5047038;28;20038;-67
2021/12/06 04:53:36;;;;;;;43.53;18.15;;;;;;;1.83;100.00;100012.34;5042628;28;20036;-68
2021/12/06 04:56:23;;;;;;;36.88;15.90;;;;;;;1.75;100.00;100007.78;5047410;28;20390;-67
2021/12/06 04:59:03;;;;;;;35.38;15.15;;;;;;;1.62;100.00;100018.47;5052988;28;20033;-68
2021/12/06 05:01:32;;;;;;;30.83;14.93;;;;;;;1.83;100.00;100031.47;5036103;28;20383;-65
2021/12/06 05:04:03;;;;;;;32.25;14.80;;;;;;;1.89;100.00;100023.13;5039131;28;20025;-66
2021/12/06 05:06:32;;;;;;;43.13;15.98;;;;;;;1.96;100.00;100025.22;5037772;28;20101;-68
2021/12/06 05:09:03;;;;;;;39.95;14.90;;;;;;;2.00;100.00;100021.38;5051420;28;20056;-66
2021/12/06 05:11:29;;;;;;;35.97;15.85;;;;;;;1.81;100.00;100020.34;5036133;28;20041;-65
2021/12/06 05:13:57;;;;;;;34.72;14.40;;;;;;;1.85;100.00;100013.06;5051415;28;20100;-68
2021/12/06 05:16:23;;;;;;;40.53;16.15;;;;;;;1.96;100.00;100004.28;5041435;28;20064;-66
2021/12/06 05:18:49;;;;;;;31.48;15.88;;;;;;;1.97;100.00;100011.16;5052918;28;20385;-67
2021/12/06 05:21:15;;;;;;;46.88;17.48;;;;;;;2.04;100.00;100009.69;5046081;28;20033;-67
2021/12/06 05:23:40;;;;;;;43.05;15.45;;;;;;;2.12;100.00;100015.06;5046120;28;20029;-65
2021/12/06 05:26:06;;;;;;;42.53;16.50;;;;;;;2.11;100.00;100008.19;5052669;28;20500;-65
2021/12/06 05:28:38;;;;;;;51.58;17.95;;;;;;;2.16;100.00;100011.25;5052695;28;20021;-66
2021/12/06 05:31:12;;;;;;;41.92;15.77;;;;;;;2.13;100.00;100011.50;5037579;28;20501;-68
2021/12/06 05:33:40;;;;;;;34.90;14.52;;;;;;;1.95;100.00;100016.53;5052407;28;20029;-67
2021/12/06 05:36:05;;;;;;;32.83;16.05;;;;;;;2.15;100.00;100023.50;5048206;28;20025;-65
2021/12/06 05:38:31;;;;;;;42.15;16.77;;;;;;;2.21;100.00;100027.38;5041612;28;20356;-65
2021/12/06 05:40:57;;;;;;;44.33;16.02;;;;;;;2.25;100.00;100033.16;5050782;28;20025;-67
2021/12/06 05:43:23;;;;;;;40.55;17.15;;;;;;;2.10;100.00;100036.16;5053189;28;20024;-67
2021/12/06 05:45:50;;;;;;;31.15;15.65;;;;;;;1.77;100.00;100039.88;5042473;28;20494;-68
2021/12/06 05:48:16;;;;;;;35.47;17.58;;;;;;;1.74;100.00;100019.19;5046674;28;20025;-68
2021/12/06 05:50:44;;;;;;;40.08;16.13;;;;;;;1.85;100.00;100029.59;5034867;28;20027;-67
2021/12/06 05:53:09;;;;;;;54.20;16.67;;;;;;;1.80;100.00;100023.91;5036796;28;20029;-67
2021/12/06 05:55:35;;;;;;;33.35;16.25;;;;;;;1.64;100.00;100031.41;5050737;28;20109;-65
2021/12/06 05:58:04;;;;;;;34.78;14.63;;;;;;;1.74;100.00;100039.28;5051785;28;20052;-67
2021/12/06 06:00:32;;;;;;;41.38;16.42;;;;;;;2.04;100.00;100041.91;5035893;28;20186;-66
2021/12/06 06:02:59;;;;;;;47.92;16.00;;;;;;;1.95;100.00;100027.00;5036151;28;20033;-65
2021/12/06 06:05:25;;;;;;;36.90;15.70;;;;;;;1.94;100.00;100039.25;5046598;28;20037;-67
2021/12/06 06:07:51;;;;;;;49.80;17.15;;;;;;;1.94;100.00;100039.25;5035390;28;20032;-64
2021/12/06 06:10:17;;;;;;;31.65;16.27;;;;;;;1.97;100.00;100032.09;5051677;28;20045;-66
2021/12/06 06:12:43;;;;;;;28.38;12.88;;;;;;;1.69;100.00;100024.00;5050668;28;20122;-66
2021/12/06 06:15:09;;;;;;;23.50;12.75;;;;;;;1.71;100.00;100024.69;5053010;28;20064;-68
2021/12/06 06:17:41;;;;;;;36.00;12.68;;;;;;;1.53;100.00;100018.41;5050522;28;20033;-66
2021/12/06 06:20:17;;;;;;;35.30;14.85;;;;;;;1.61;100.00;100024.63;5048909;28;20044;-68
2021/12/06 06:22:43;;;;;;;41.85;15.57;;;;;;;1.54;100.00;100026.13;5052922;28;20044;-67
2021/12/06 06:25:09;;;;;;;31.92;15.00;;;;;;;1.75;100.00;100035.72;5050402;28;20033;-68
2021/12/06 06:27:35;;;;;;;38.13;14.65;;;;;;;1.98;100.00;100024.09;5045435;28;20028;-67
2021/12/06 06:30:01;;;;;;;34.17;13.85;;;;;;;1.99;100.00;100019.72;5037487;28;20029;-67
2021/12/06 06:32:26;;;;;;;40.25;16.23;;;;;;;2.14;100.00;100029.69;5049777;28;20021;-65
2021/12/06 06:34:52;;;;;;;41.42;16.48;;;;;;;1.99;100.00;100035.44;5037758;28;20021;-67
2021/12/06 06:37:17;;;;;;;48.58;15.90;;;;;;;2.05;100.00;100034.88;5038045;28;20034;-65
2021/12/06 06:39:43;;;;;;;46.78;15.75;;;;;;;1.94;100.00;100041.03;5048565;28;20026;-68
2021/12/06 06:42:08;;;;;;;36.47;15.40;;;;;;;1.85;100.00;100040.06;5039450;28;20124;-68
2021/12/06 06:44:34;;;;;;;44.55;15.60;;;;;;;2.04;100.00;100035.84;5052566;28;20037;-68
2021/12/06 06:46:59;;;;;;;80.72;29.33;;;;;;;2.15;100.00;100041.81;5051012;28;20041;-68
2021/12/06 06:49:25;;;;;;;54.05;17.58;;;;;;;1.92;100.00;100041.19;5032075;28;20018;-65
2021/12/06 06:51:51;;;;;;;46.30;17.58;;;;;;;2.24;100.00;100052.44;5048226;28;20438;-66
2021/12/06 06:54:16;;;;;;;50.03;16.67;;;;;;;2.25;100.00;100038.41;5051345;28;20352;-67
2021/12/06 06:56:42;;;;;;;72.00;17.13;;;;;;;2.27;100.00;100032.06;5044493;28;20528;-68
2021/12/06 06:59:08;;;;;;;34.15;15.93;;;;;;;2.11;100.00;100039.59;5049311;28;20025;-68
2021/12/06 07:01:33;;;;;;;40.47;15.98;;;;;;;2.30;100.00;100038.84;5047813;28;20033;-68
2021/12/06 07:03:59;;;;;;;41.92;16.08;;;;;;;2.27;100.00;100042.53;5049282;28;20487;-69
2021/12/06 07:06:27;;;;;;;38.40;16.08;;;;;;;2.29;100.00;100042.41;5044125;28;20033;-67
2021/12/06 07:08:54;;;;;;;56.05;15.38;;;;;;;2.26;100.00;100040.88;5048849;28;20029;-67
2021/12/06 07:11:21;;;;;;;48.83;16.15;;;;;;;2.32;100.00;100037.72;5034287;28;20431;-68
2021/12/06 07:13:47;;;;;;;42.30;17.42;;;;;;;2.31;100.00;100036.06;5051852;28;20064;-67
2021/12/06 07:16:14;;;;;;;35.97;14.13;;;;;;;1.90;100.00;100037.84;5047525;28;20025;-66
2021/12/06 07:18:40;;;;;;;50.53;18.20;;;;;;;2.24;100.00;100040.19;5050103;28;20021;-66
2021/12/06 07:21:06;;;;;;;50.53;18.20;;;;;;;2.22;100.00;100048.19;5043933;28;20029;-65
2021/12/06 07:23:38;;;;;;;66.75;20.45;;;;;;;2.17;100.00;100039.88;5044610;28;20076;-66
2021/12/06 07:26:05;;;;;;;53.80;19.10;;;;;;;2.16;100.00;100029.56;5050648;28;20517;-67
2021/12/06 07:28:30;;;;;;;59.58;18.08;;;;;;;2.06;100.00;100006.00;5042733;28;20032;-68
2021/12/06 07:30:58;;;;;;;46.13;18.83;;;;;;;2.29;100.00;100018.88;5038029;28;20029;-67
2021/12/06 07:33:25;;;;;;;56.80;19.88;;;;;;;2.44;100.00;100028.00;5051773;28;20021;-67
2021/12/06 07:35:51;;;;;;;50.88;17.30;;;;;;;2.23;100.00;100022.84;5047248;28;20036;-65
2021/12/06 07:38:16;;;;;;;46.50;17.17;;;;;;;2.12;100.00;100033.38;5039440;28;20017;-68
2021/12/06 07:40:42;;;;;;;42.15;15.13;;;;;;;1.99;100.00;100023.19;5049923;28;20028;-66
2021/12/06 07:43:08;;;;;;;42.47;16.27;;;;;;;1.94;100.00;100020.13;5049708;28;20245;-68
2021/12/06 07:45:33;;;;;;;37.92;15.95;;;;;;;1.85;100.00;100023.53;5033131;28;20025;-69
2021/12/06 07:47:59;;;;;;;42.65;14.07;;;;;;;1.81;100.00;100024.75;5032394;28;20395;-67
2021/12/06 07:50:24;;;;;;;58.80;18.90;;;;;;;1.92;100.00;100020.25;5046948;28;20052;-67
2021/12/06 07:52:51;;;;;;;48.17;17.77;;;;;;;2.07;100.00;100019.91;5037157;28;20033;-66
2021/12/06 07:55:19;;;;;;;48.15;17.50;;;;;;;2.12;100.00;100028.16;5049590;28;20040;-68
2021/12/06 07:57:45;;;;;;;48.40;17.92;;;;;;;2.31;100.00;100030.84;5043853;28;23288;-68
2021/12/06 08:00:14;;;;;;;48.22;16.85;;;;;;;2.16;100.00;100038.22;5020056;28;20088;-66
2021/12/06 08:02:40;;;;;;;51.63;17.98;;;;;;;2.37;100.00;100027.69;5046789;28;20505;-66
2021/12/06 08:07:51;;;;;;;49.15;15.82;;;;;;;2.55;100.00;100051.41;5049043;28;20239;-68
2021/12/06 08:10:17;;;;;;;47.60;19.05;;;;;;;2.49;100.00;100047.53;5049206;28;20575;-67
2021/12/06 08:12:42;;;;;;;37.28;15.63;;;;;;;2.10;100.00;100045.78;5052906;28;20033;-66
2021/12/06 08:15:09;;;;;;;52.60;19.38;;;;;;;2.15;100.00;100038.38;5054087;28;20052;-67
2021/12/06 08:17:35;;;;;;;47.25;15.32;;;;;;;2.19;100.00;100034.50;5051379;28;20029;-69
2021/12/06 08:20:01;;;;;;;48.95;16.75;;;;;;;2.33;100.00;100036.75;5035759;28;20024;-67
2021/12/06 08:22:26;;;;;;;50.28;16.60;;;;;;;2.63;100.00;100045.50;5047733;28;20424;-68
2021/12/06 08:24:52;;;;;;;49.67;17.08;;;;;;;2.78;100.00;100042.34;5051506;28;20025;-68
2021/12/06 08:27:18;;;;;;;45.15;19.17;;;;;;;2.91;100.00;100052.56;5041334;28;20075;-70
2021/12/06 08:29:43;;;;;;;54.67;18.27;;;;;;;3.00;100.00;100049.13;5056184;28;20028;-70
2021/12/06 08:32:11;;;;;;;41.47;17.30;;;;;;;2.99;100.00;100063.19;5058779;28;20107;-69
2021/12/06 08:34:41;;;;;;;50.55;20.10;;;;;;;3.09;100.00;100065.84;5043636;28;20037;-67
2021/12/06 08:37:08;;;;;;;46.72;18.25;;;;;;;3.29;100.00;100066.63;5037270;28;20048;-75
2021/12/06 08:39:33;;;;;;;44.17;17.77;;;;;;;2.95;100.00;100056.59;5034077;28;20117;-74
2021/12/06 08:41:59;;;;;;;48.72;16.88;;;;;;;2.94;100.00;100060.19;5041749;28;20108;-76
2021/12/06 08:44:25;;;;;;;51.70;19.02;;;;;;;2.73;100.00;100041.94;5046095;28;20025;-73
2021/12/06 08:46:51;;;;;;;52.47;21.50;;;;;;;3.38;100.00;100049.22;5052895;28;20389;-75
2021/12/06 08:49:17;;;;;;;51.05;20.13;;;;;;;3.48;100.00;100048.28;5035369;28;20033;-70
2021/12/06 08:51:49;;;;;;;39.13;18.17;;;;;;;3.52;100.00;100038.31;5040292;28;20450;-73
2021/12/06 08:54:18;;;;;;;46.05;16.42;;;;;;;3.67;100.00;100029.03;5036533;28;20025;-75
2021/12/06 08:56:45;;;;;;;44.55;17.00;;;;;;;3.62;100.00;100015.53;5046770;28;20108;-77
2021/12/06 08:59:12;;;;;;;44.65;17.70;;;;;;;3.60;100.00;100015.69;5041678;28;20052;-71
2021/12/06 09:01:38;;;;;;;39.42;16.23;;;;;;;3.56;100.00;100014.28;5048679;28;20030;-71
2021/12/06 09:04:06;;;;;;;38.95;17.45;;;;;;;3.60;100.00;100015.69;5057242;28;20079;-67
2021/12/06 09:06:31;;;;;;;45.85;17.73;;;;;;;3.65;100.00;100007.34;5051647;28;21461;-68
2021/12/06 09:08:57;;;;;;;39.03;17.70;;;;;;;3.73;100.00;100009.28;5039776;28;20066;-72
2021/12/06 09:11:23;;;;;;;49.97;19.40;;;;;;;4.01;100.00;100012.75;5047435;28;20091;-68
2021/12/06 09:13:48;;;;;;;42.38;18.10;;;;;;;3.80;100.00;99999.84;5047903;28;20087;-70
2021/12/06 09:16:14;;;;;;;53.67;18.80;;;;;;;3.82;100.00;99983.03;5050293;28;20033;-74
2021/12/06 09:18:43;;;;;;;50.20;18.15;;;;;;;3.78;100.00;99988.69;5042459;28;20040;-72
2021/12/06 09:21:14;;;;;;;41.00;19.85;;;;;;;3.62;100.00;99984.06;5046939;28;20024;-74
2021/12/06 09:23:40;;;;;;;46.63;17.92;;;;;;;3.72;100.00;99981.38;5043029;28;20437;-69
2021/12/06 09:26:07;;;;;;;54.45;18.60;;;;;;;3.82;100.00;99974.31;5043061;28;20025;-72
2021/12/06 09:28:33;;;;;;;54.53;18.08;;;;;;;3.39;100.00;99969.63;5047271;28;20121;-72
2021/12/06 09:31:01;;;;;;;46.20;20.45;;;;;;;3.49;100.00;99960.75;5041460;28;20033;-71
2021/12/06 09:33:28;;;;;;;70.35;21.10;;;;;;;3.70;100.00;99980.72;5044942;28;20467;-69
2021/12/06 09:35:57;;;;;;;58.42;21.05;;;;;;;3.37;100.00;99977.63;5038984;28;20040;-70
2021/12/06 09:38:26;;;;;;;42.38;17.48;;;;;;;2.78;100.00;99958.53;5046531;28;20124;-68
2021/12/06 09:40:53;;;;;;;64.90;18.67;;;;;;;2.84;100.00;99959.78;5034717;28;20041;-72
2021/12/06 09:43:19;;;;;;;49.38;20.85;;;;;;;2.81;100.00;99954.00;5041609;28;20029;-68
2021/12/06 09:45:46;;;;;;;57.78;22.67;;;;;;;3.18;100.00;99947.06;5039950;28;20088;-69
2021/12/06 09:48:14;;;;;;;35.35;13.00;;;;;;;2.86;100.00;99949.97;5043963;28;20537;-68
2021/12/06 09:50:45;;;;;;;50.08;21.13;;;;;;;3.24;100.00;99943.06;5039354;28;20029;-72
2021/12/06 09:53:15;;;;;;;40.45;17.38;;;;;;;3.23;100.00;99944.00;5056618;28;20028;-75
2021/12/06 09:55:42;;;;;;;46.85;17.60;;;;;;;3.97;100.00;99941.38;5049420;28;20025;-71
2021/12/06 09:58:09;;;;;;;45.20;18.25;;;;;;;3.81;100.00;99939.34;5048123;28;20055;-73
2021/12/06 10:00:45;;;;;;;46.92;17.95;;;;;;;4.08;100.00;99935.91;5050854;28;20034;-75
2021/12/06 10:03:15;;;;;;;32.40;15.98;;;;;;;3.78;100.00;99931.78;5050589;28;20029;-70
2021/12/06 10:05:41;;;;;;;46.05;18.73;;;;;;;3.81;100.00;99928.88;5041768;28;20068;-68
2021/12/06 10:08:07;;;;;;;52.78;16.55;;;;;;;3.96;100.00;99939.69;5039666;28;20148;-69
2021/12/06 10:10:33;;;;;;;56.42;18.48;;;;;;;3.97;100.00;99936.13;5048349;28;20064;-68
2021/12/06 10:12:59;;;;;;;43.45;17.00;;;;;;;4.04;100.00;99928.47;5039312;28;20182;-68
2021/12/06 10:15:27;;;;;;;43.30;19.15;;;;;;;4.13;100.00;99927.59;5041632;28;20029;-69
2021/12/06 10:17:55;;;;;;;53.53;22.48;;;;;;;4.01;100.00;99934.84;5037267;28;20044;-67
2021/12/06 10:20:21;;;;;;;69.60;24.95;;;;;;;3.67;100.00;99925.91;5039167;28;20061;-67
2021/12/06 10:22:47;;;;;;;66.78;24.58;;;;;;;3.47;100.00;99935.66;5033962;28;20408;-67
2021/12/06 10:25:13;;;;;;;67.07;27.25;;;;;;;3.77;100.00;99934.56;5036910;28;20112;-68
2021/12/06 10:27:38;;;;;;;63.78;26.25;;;;;;;3.85;100.00;99913.69;5040612;28;20043;-70
2021/12/06 10:30:10;;;;;;;69.35;24.90;;;;;;;3.99;100.00;99909.72;5042596;28;20057;-69
2021/12/06 10:32:39;;;;;;;57.28;21.48;;;;;;;4.02;100.00;99907.63;5045423;28;20074;-70
2021/12/06 10:35:08;;;;;;;63.97;22.25;;;;;;;4.02;100.00;99915.50;5036387;28;20032;-74
2021/12/06 10:37:54;;;;;;;52.17;20.80;;;;;;;4.09;100.00;99911.31;5044127;28;20490;-69
2021/12/06 10:40:30;;;;;;;41.75;18.52;;;;;;;4.15;100.00;99910.72;5035173;28;20032;-69
2021/12/06 10:42:58;;;;;;;50.03;21.63;;;;;;;3.96;100.00;99883.78;5044895;28;20086;-69
2021/12/06 10:45:54;;;;;;;52.30;19.38;;;;;;;4.09;100.00;99921.81;5048775;28;20026;-70
2021/12/06 10:48:30;;;;;;;42.53;18.67;;;;;;;3.84;100.00;99927.78;5035941;28;20177;-70
2021/12/06 10:51:02;;;;;;;55.70;19.25;;;;;;;3.84;100.00;99904.97;5036969;28;20033;-65
2021/12/06 10:53:34;;;;;;;46.40;18.38;;;;;;;3.93;100.00;99913.75;5042479;28;20025;-70
2021/12/06 10:56:00;;;;;;;55.10;22.75;;;;;;;3.85;100.00;99913.69;5036597;28;20036;-69
2021/12/06 10:58:28;;;;;;;56.60;23.17;;;;;;;3.82;100.00;99912.19;5040867;28;20029;-66
2021/12/06 11:01:06;;;;;;;57.45;20.45;;;;;;;3.96;100.00;99904.75;5050539;28;20026;-72
2021/12/06 11:03:36;;;;;;;56.20;20.83;;;;;;;4.03;100.00;99914.53;5037408;28;20104;-74
2021/12/06 11:06:10;;;;;;;50.25;20.60;;;;;;;3.46;100.00;99895.50;5035644;28;20036;-71
2021/12/06 11:08:38;;;;;;;61.17;21.05;;;;;;;3.17;100.00;99884.31;5041711;28;20036;-71
2021/12/06 11:11:24;;;;;;;69.65;22.48;;;;;;;3.58;100.00;99886.47;5034160;28;20049;-72
2021/12/06 11:13:53;;;;;;;56.97;22.00;;;;;;;3.65;100.00;99883.25;5039225;28;20452;-71
2021/12/06 11:16:33;;;;;;;67.28;20.58;;;;;;;3.81;100.00;99878.19;5031619;28;20028;-70
2021/12/06 11:19:04;;;;;;;63.28;21.92;;;;;;;3.83;100.00;99881.53;5038122;28;20044;-71
2021/12/06 11:21:43;;;;;;;48.17;19.08;;;;;;;3.73;100.00;99885.97;5039726;28;20067;-73
2021/12/06 11:24:39;;;;;;;54.70;20.85;;;;;;;3.82;100.00;99882.50;5045531;28;20021;-70
2021/12/06 11:27:26;;;;;;;45.08;18.17;;;;;;;3.85;100.00;99875.13;5036249;28;20854;-70
2021/12/06 11:29:57;;;;;;;43.72;20.10;;;;;;;3.94;100.00;99854.22;5043800;28;20479;-69
2021/12/06 11:32:24;;;;;;;36.88;18.10;;;;;;;4.22;100.00;99862.88;5043578;28;20076;-69